OH93 weather

Darby Airport
Milford Center, Ohio, United States

Public forecast

Using degrees Fahrenheit for public forecast. Weather courtesy of forecast.io.

Closest aviation weather report (METAR) to Darby Airport

Closest report is Union County Airport, 5.4 nm (9.9 km) NNE. Retrieved 2020/05/29 20:19 UTC (18 minutes ago):

KMRT 292019Z AUTO 29006KT 5SM SCT043 BKN050 OVC065 17/16 A2996 RMK AO1

Closest aviation forecast (TAF) to Darby Airport

Closest forecast is John Glenn Columbus International Airport, 24.4 nm (45.3 km) ESE. Retrieved 2020/05/29 18:24 UTC (2 hours ago):

TAF KCMH 291720Z 2918/3018 22012G17KT P6SM SHRA VCTS BKN060CB TEMPO 2918/2920 4SM TSRA FM292000 24011G19KT 4SM TSRA VCTS BKN035CB TEMPO 2920/2922 2SM +TSRA FM292200 30009G17KT P6SM SHRA VCTS BKN045CB FM300000 33007KT P6SM BKN060 FM300300 33003KT P6SM FEW100 FM301200 33008KT P6SM FEW100